sensor_id;sensor_type;location;lat;lon;timestamp;pressure;altitude;pressure_sealevel;temperature;humidity
13080;BME280;6606;49.154;9.280;2022-09-01T00:00:07;99855.19;;;16.24;100.00
13080;BME280;6606;49.154;9.280;2022-09-01T00:02:35;99862.78;;;16.18;100.00
13080;BME280;6606;49.154;9.280;2022-09-01T00:05:03;99862.78;;;16.18;100.00
13080;BME280;6606;49.154;9.280;2022-09-01T00:07:32;99856.16;;;16.23;100.00
13080;BME280;6606;49.154;9.280;2022-09-01T00:10:00;99860.34;;;16.27;100.00
13080;BME280;6606;49.154;9.280;2022-09-01T00:12:29;99852.31;;;16.27;100.00
13080;BME280;6606;49.154;9.280;2022-09-01T00:14:56;99855.28;;;16.36;100.00
13080;BME280;6606;49.154;9.280;2022-09-01T00:17:23;99856.16;;;16.36;100.00
13080;BME280;6606;49.154;9.280;2022-09-01T00:19:50;99863.63;;;16.44;100.00
13080;BME280;6606;49.154;9.280;2022-09-01T00:22:17;99845.41;;;16.49;100.00
13080;BME280;6606;49.154;9.280;2022-09-01T00:24:43;99845.50;;;16.47;100.00
13080;BME280;6606;49.154;9.280;2022-09-01T00:27:10;99847.66;;;16.55;100.00
13080;BME280;6606;49.154;9.280;2022-09-01T00:29:38;99847.97;;;16.51;100.00
13080;BME280;6606;49.154;9.280;2022-09-01T00:32:05;99850.31;;;16.55;100.00
13080;BME280;6606;49.154;9.280;2022-09-01T00:34:31;99842.38;;;16.54;100.00
13080;BME280;6606;49.154;9.280;2022-09-01T00:36:58;99845.41;;;16.49;100.00
13080;BME280;6606;49.154;9.280;2022-09-01T00:39:25;99843.38;;;16.40;100.00
13080;BME280;6606;49.154;9.280;2022-09-01T00:41:52;99847.78;;;16.41;100.00
13080;BME280;6606;49.154;9.280;2022-09-01T00:44:20;99838.34;;;16.48;100.00
13080;BME280;6606;49.154;9.280;2022-09-01T00:46:54;99847.34;;;16.47;100.00
13080;BME280;6606;49.154;9.280;2022-09-01T00:49:26;99844.91;;;16.31;100.00
13080;BME280;6606;49.154;9.280;2022-09-01T00:51:58;99845.47;;;16.23;100.00
13080;BME280;6606;49.154;9.280;2022-09-01T00:54:29;99858.53;;;16.15;100.00
13080;BME280;6606;49.154;9.280;2022-09-01T00:56:56;99850.94;;;16.09;100.00
13080;BME280;6606;49.154;9.280;2022-09-01T00:59:24;99848.13;;;15.98;100.00
13080;BME280;6606;49.154;9.280;2022-09-01T01:01:53;99847.41;;;15.96;100.00
13080;BME280;6606;49.154;9.280;2022-09-01T01:04:21;99851.69;;;15.98;100.00
13080;BME280;6606;49.154;9.280;2022-09-01T01:06:52;99844.09;;;16.05;100.00
13080;BME280;6606;49.154;9.280;2022-09-01T01:09:24;99848.13;;;16.11;100.00
13080;BME280;6606;49.154;9.280;2022-09-01T01:11:52;99845.91;;;16.04;100.00
13080;BME280;6606;49.154;9.280;2022-09-01T01:14:18;99842.25;;;15.93;100.00
13080;BME280;6606;49.154;9.280;2022-09-01T01:16:46;99839.94;;;15.88;100.00
13080;BME280;6606;49.154;9.280;2022-09-01T01:19:20;99850.94;;;15.83;100.00
13080;BME280;6606;49.154;9.280;2022-09-01T01:22:07;99838.72;;;15.79;100.00
13080;BME280;6606;49.154;9.280;2022-09-01T01:24:55;99836.06;;;15.79;100.00
13080;BME280;6606;49.154;9.280;2022-09-01T01:27:23;99840.50;;;15.66;100.00
13080;BME280;6606;49.154;9.280;2022-09-01T01:29:49;99839.00;;;15.62;100.00
13080;BME280;6606;49.154;9.280;2022-09-01T01:32:19;99832.31;;;15.69;100.00
13080;BME280;6606;49.154;9.280;2022-09-01T01:34:45;99835.00;;;15.69;100.00
13080;BME280;6606;49.154;9.280;2022-09-01T01:37:13;99823.44;;;15.69;100.00
13080;BME280;6606;49.154;9.280;2022-09-01T01:39:40;99829.22;;;15.75;100.00
13080;BME280;6606;49.154;9.280;2022-09-01T01:42:10;99824.63;;;15.77;100.00
13080;BME280;6606;49.154;9.280;2022-09-01T01:44:38;99832.84;;;15.74;100.00
13080;BME280;6606;49.154;9.280;2022-09-01T01:47:08;99828.47;;;15.73;100.00
13080;BME280;6606;49.154;9.280;2022-09-01T01:49:38;99832.19;;;15.71;100.00
13080;BME280;6606;49.154;9.280;2022-09-01T01:52:09;99836.47;;;15.73;100.00
13080;BME280;6606;49.154;9.280;2022-09-01T01:54:41;99842.81;;;15.72;100.00
13080;BME280;6606;49.154;9.280;2022-09-01T01:57:09;99848.88;;;15.74;100.00
13080;BME280;6606;49.154;9.280;2022-09-01T01:59:39;99841.41;;;15.79;100.00
13080;BME280;6606;49.154;9.280;2022-09-01T02:02:06;99839.91;;;15.75;100.00
13080;BME280;6606;49.154;9.280;2022-09-01T02:04:34;99839.91;;;15.75;100.00
13080;BME280;6606;49.154;9.280;2022-09-01T02:07:09;99841.41;;;15.79;100.00
13080;BME280;6606;49.154;9.280;2022-09-01T02:09:37;99842.81;;;15.72;100.00
13080;BME280;6606;49.154;9.280;2022-09-01T02:12:06;99839.56;;;15.67;100.00
13080;BME280;6606;49.154;9.280;2022-09-01T02:14:35;99840.09;;;15.59;100.00
13080;BME280;6606;49.154;9.280;2022-09-01T02:17:03;99842.84;;;15.58;100.00
13080;BME280;6606;49.154;9.280;2022-09-01T02:19:32;99837.94;;;15.52;100.00
13080;BME280;6606;49.154;9.280;2022-09-01T02:22:01;99844.88;;;15.54;100.00
13080;BME280;6606;49.154;9.280;2022-09-01T02:24:27;99837.94;;;15.52;100.00
13080;BME280;6606;49.154;9.280;2022-09-01T02:26:56;99836.84;;;15.42;100.00
13080;BME280;6606;49.154;9.280;2022-09-01T02:29:25;99838.75;;;15.39;100.00
13080;BME280;6606;49.154;9.280;2022-09-01T02:31:55;99830.75;;;15.39;100.00
13080;BME280;6606;49.154;9.280;2022-09-01T02:34:25;99837.06;;;15.38;100.00
13080;BME280;6606;49.154;9.280;2022-09-01T02:36:55;99833.63;;;15.36;100.00
13080;BME280;6606;49.154;9.280;2022-09-01T02:39:25;99838.09;;;15.36;100.00
13080;BME280;6606;49.154;9.280;2022-09-01T02:41:52;99841.84;;;15.33;100.00
13080;BME280;6606;49.154;9.280;2022-09-01T02:44:23;99843.00;;;15.29;100.00
13080;BME280;6606;49.154;9.280;2022-09-01T02:46:52;99836.16;;;15.25;100.00
13080;BME280;6606;49.154;9.280;2022-09-01T02:49:23;99841.28;;;15.28;100.00
13080;BME280;6606;49.154;9.280;2022-09-01T02:51:54;99839.81;;;15.24;100.00
13080;BME280;6606;49.154;9.280;2022-09-01T02:54:26;99838.28;;;15.20;100.00
13080;BME280;6606;49.154;9.280;2022-09-01T02:56:54;99836.47;;;15.21;100.00
13080;BME280;6606;49.154;9.280;2022-09-01T02:59:24;99840.09;;;15.20;100.00
13080;BME280;6606;49.154;9.280;2022-09-01T03:01:52;99834.84;;;15.18;100.00
13080;BME280;6606;49.154;9.280;2022-09-01T03:04:20;99834.84;;;15.18;100.00
13080;BME280;6606;49.154;9.280;2022-09-01T03:06:49;99833.25;;;15.15;100.00
13080;BME280;6606;49.154;9.280;2022-09-01T03:09:19;99832.94;;;15.20;100.00
13080;BME280;6606;49.154;9.280;2022-09-01T03:11:51;99833.16;;;15.17;100.00
13080;BME280;6606;49.154;9.280;2022-09-01T03:14:19;99832.94;;;15.20;100.00
13080;BME280;6606;49.154;9.280;2022-09-01T03:16:46;99832.94;;;15.20;100.00
13080;BME280;6606;49.154;9.280;2022-09-01T03:19:13;99833.50;;;15.25;100.00
13080;BME280;6606;49.154;9.280;2022-09-01T03:21:43;99826.59;;;15.35;100.00
13080;BME280;6606;49.154;9.280;2022-09-01T03:24:15;99821.88;;;15.39;100.00
13080;BME280;6606;49.154;9.280;2022-09-01T03:26:44;99828.72;;;15.43;100.00
13080;BME280;6606;49.154;9.280;2022-09-01T03:29:26;99830.66;;;15.41;100.00
13080;BME280;6606;49.154;9.280;2022-09-01T03:31:53;99841.75;;;15.48;100.00
13080;BME280;6606;49.154;9.280;2022-09-01T03:34:20;99833.44;;;15.52;100.00
13080;BME280;6606;49.154;9.280;2022-09-01T03:36:50;99834.09;;;15.56;100.00
13080;BME280;6606;49.154;9.280;2022-09-01T03:39:25;99830.03;;;15.63;100.00
13080;BME280;6606;49.154;9.280;2022-09-01T03:41:51;99836.88;;;15.67;100.00
13080;BME280;6606;49.154;9.280;2022-09-01T03:44:20;99826.56;;;15.75;100.00
13080;BME280;6606;49.154;9.280;2022-09-01T03:46:47;99827.94;;;15.81;100.00
13080;BME280;6606;49.154;9.280;2022-09-01T03:49:13;99826.00;;;15.70;100.00
13080;BME280;6606;49.154;9.280;2022-09-01T03:51:50;99826.94;;;15.56;100.00
13080;BME280;6606;49.154;9.280;2022-09-01T03:54:19;99830.25;;;15.60;100.00
13080;BME280;6606;49.154;9.280;2022-09-01T03:56:51;99827.16;;;15.53;100.00
13080;BME280;6606;49.154;9.280;2022-09-01T03:59:19;99827.47;;;15.49;100.00
13080;BME280;6606;49.154;9.280;2022-09-01T04:01:47;99827.66;;;15.46;100.00
13080;BME280;6606;49.154;9.280;2022-09-01T04:04:14;99826.91;;;15.44;100.00
13080;BME280;6606;49.154;9.280;2022-09-01T04:06:44;99825.59;;;15.36;100.00
13080;BME280;6606;49.154;9.280;2022-09-01T04:09:12;99820.47;;;15.33;100.00
13080;BME280;6606;49.154;9.280;2022-09-01T04:11:41;99827.84;;;15.30;100.00
13080;BME280;6606;49.154;9.280;2022-09-01T04:14:12;99832.44;;;15.28;100.00
13080;BME280;6606;49.154;9.280;2022-09-01T04:16:39;99834.94;;;15.44;100.00
13080;BME280;6606;49.154;9.280;2022-09-01T04:19:25;99828.13;;;15.65;100.00
13080;BME280;6606;49.154;9.280;2022-09-01T04:21:54;99827.72;;;15.71;100.00
13080;BME280;6606;49.154;9.280;2022-09-01T04:24:24;99830.91;;;15.76;100.00
13080;BME280;6606;49.154;9.280;2022-09-01T04:26:53;99826.25;;;15.80;100.00
13080;BME280;6606;49.154;9.280;2022-09-01T04:29:22;99826.22;;;15.93;100.00
13080;BME280;6606;49.154;9.280;2022-09-01T04:31:52;99836.59;;;15.97;100.00
13080;BME280;6606;49.154;9.280;2022-09-01T04:34:19;99833.06;;;15.97;100.00
13080;BME280;6606;49.154;9.280;2022-09-01T04:36:47;99839.72;;;16.04;100.00
13080;BME280;6606;49.154;9.280;2022-09-01T04:39:17;99839.03;;;15.88;100.00
13080;BME280;6606;49.154;9.280;2022-09-01T04:41:44;99831.78;;;15.90;100.00
13080;BME280;6606;49.154;9.280;2022-09-01T04:44:12;99835.44;;;15.89;100.00
13080;BME280;6606;49.154;9.280;2022-09-01T04:46:45;99838.09;;;15.89;100.00
13080;BME280;6606;49.154;9.280;2022-09-01T04:49:16;99834.03;;;15.96;100.00
13080;BME280;6606;49.154;9.280;2022-09-01T04:51:49;99839.38;;;15.70;100.00
13080;BME280;6606;49.154;9.280;2022-09-01T04:54:16;99839.91;;;15.75;100.00
13080;BME280;6606;49.154;9.280;2022-09-01T04:56:47;99841.19;;;15.70;100.00
13080;BME280;6606;49.154;9.280;2022-09-01T04:59:17;99843.53;;;15.74;100.00
13080;BME280;6606;49.154;9.280;2022-09-01T05:01:50;99838.19;;;15.74;100.00
13080;BME280;6606;49.154;9.280;2022-09-01T05:04:20;99842.47;;;15.77;100.00
13080;BME280;6606;49.154;9.280;2022-09-01T05:06:50;99851.03;;;15.69;100.00
13080;BME280;6606;49.154;9.280;2022-09-01T05:09:18;99839.69;;;15.78;100.00
13080;BME280;6606;49.154;9.280;2022-09-01T05:12:08;99845.03;;;15.78;100.00
13080;BME280;6606;49.154;9.280;2022-09-01T05:14:43;99846.66;;;15.94;100.00
13080;BME280;6606;49.154;9.280;2022-09-01T05:17:16;99852.53;;;15.99;100.00
13080;BME280;6606;49.154;9.280;2022-09-01T05:19:46;99847.59;;;16.18;100.00
13080;BME280;6606;49.154;9.280;2022-09-01T05:22:14;99851.13;;;16.32;100.00
13080;BME280;6606;49.154;9.280;2022-09-01T05:24:52;99856.53;;;16.43;100.00
13080;BME280;6606;49.154;9.280;2022-09-01T05:27:18;99850.78;;;16.49;100.00
13080;BME280;6606;49.154;9.280;2022-09-01T05:29:47;99857.19;;;16.59;100.00
13080;BME280;6606;49.154;9.280;2022-09-01T05:32:15;99855.88;;;16.65;100.00
13080;BME280;6606;49.154;9.280;2022-09-01T05:34:42;99856.16;;;16.86;100.00
13080;BME280;6606;49.154;9.280;2022-09-01T05:37:10;99862.66;;;16.95;100.00
13080;BME280;6606;49.154;9.280;2022-09-01T05:39:39;99857.91;;;16.98;100.00
13080;BME280;6606;49.154;9.280;2022-09-01T05:42:06;99857.47;;;17.04;100.00
13080;BME280;6606;49.154;9.280;2022-09-01T05:44:34;99859.84;;;16.96;100.00
13080;BME280;6606;49.154;9.280;2022-09-01T05:47:02;99868.19;;;17.04;100.00
13080;BME280;6606;49.154;9.280;2022-09-01T05:49:32;99866.69;;;17.00;100.00
13080;BME280;6606;49.154;9.280;2022-09-01T05:52:02;99865.03;;;17.10;100.00
13080;BME280;6606;49.154;9.280;2022-09-01T05:54:29;99868.19;;;17.04;100.00
13080;BME280;6606;49.154;9.280;2022-09-01T05:56:57;99873.69;;;17.14;100.00
13080;BME280;6606;49.154;9.280;2022-09-01T05:59:27;99866.97;;;17.08;100.00
13080;BME280;6606;49.154;9.280;2022-09-01T06:01:59;99865.34;;;17.19;100.00
13080;BME280;6606;49.154;9.280;2022-09-01T06:04:26;99865.88;;;17.35;100.00
13080;BME280;6606;49.154;9.280;2022-09-01T06:07:01;99866.22;;;17.54;100.00
13080;BME280;6606;49.154;9.280;2022-09-01T06:09:37;99867.97;;;17.78;100.00
13080;BME280;6606;49.154;9.280;2022-09-01T06:12:04;99858.41;;;17.98;100.00
13080;BME280;6606;49.154;9.280;2022-09-01T06:14:31;99873.66;;;18.20;100.00
13080;BME280;6606;49.154;9.280;2022-09-01T06:16:57;99873.41;;;18.23;100.00
13080;BME280;6606;49.154;9.280;2022-09-01T06:19:24;99868.06;;;18.23;100.00
13080;BME280;6606;49.154;9.280;2022-09-01T06:21:51;99869.03;;;18.11;100.00
13080;BME280;6606;49.154;9.280;2022-09-01T06:24:19;99871.38;;;18.15;100.00
13080;BME280;6606;49.154;9.280;2022-09-01T06:26:45;99870.28;;;18.29;100.00
13080;BME280;6606;49.154;9.280;2022-09-01T06:29:12;99875.25;;;18.22;100.00
13080;BME280;6606;49.154;9.280;2022-09-01T06:31:44;99878.22;;;18.42;100.00
13080;BME280;6606;49.154;9.280;2022-09-01T06:34:16;99870.78;;;18.34;100.00
13080;BME280;6606;49.154;9.280;2022-09-01T06:36:46;99877.22;;;18.32;100.00
13080;BME280;6606;49.154;9.280;2022-09-01T06:39:16;99868.91;;;18.46;100.00
13080;BME280;6606;49.154;9.280;2022-09-01T06:41:49;99877.22;;;18.54;100.00
13080;BME280;6606;49.154;9.280;2022-09-01T06:44:21;99880.00;;;18.41;100.00
13080;BME280;6606;49.154;9.280;2022-09-01T06:46:56;99876.03;;;18.47;100.00
13080;BME280;6606;49.154;9.280;2022-09-01T06:49:24;99877.13;;;18.44;100.00
13080;BME280;6606;49.154;9.280;2022-09-01T06:51:57;99873.06;;;18.61;100.00
13080;BME280;6606;49.154;9.280;2022-09-01T06:54:24;99881.38;;;18.58;100.00
13080;BME280;6606;49.154;9.280;2022-09-01T06:56:52;99871.97;;;18.64;100.00
13080;BME280;6606;49.154;9.280;2022-09-01T06:59:20;99880.22;;;19.06;100.00
13080;BME280;6606;49.154;9.280;2022-09-01T07:01:48;99873.59;;;19.21;100.00
13080;BME280;6606;49.154;9.280;2022-09-01T07:04:18;99879.41;;;19.26;100.00
13080;BME280;6606;49.154;9.280;2022-09-01T07:06:53;99873.44;;;19.55;100.00
13080;BME280;6606;49.154;9.280;2022-09-01T07:09:33;99879.28;;;19.60;100.00
13080;BME280;6606;49.154;9.280;2022-09-01T07:12:20;99878.19;;;19.84;100.00
13080;BME280;6606;49.154;9.280;2022-09-01T07:14:48;99883.63;;;20.14;100.00
13080;BME280;6606;49.154;9.280;2022-09-01T07:17:15;99877.47;;;20.54;100.00
13080;BME280;6606;49.154;9.280;2022-09-01T07:19:42;99877.41;;;22.68;100.00
13080;BME280;6606;49.154;9.280;2022-09-01T07:22:08;99879.19;;;24.21;100.00
13080;BME280;6606;49.154;9.280;2022-09-01T07:24:41;99869.44;;;26.36;100.00
13080;BME280;6606;49.154;9.280;2022-09-01T07:27:33;99866.94;;;27.13;99.79
13080;BME280;6606;49.154;9.280;2022-09-01T07:30:00;99870.88;;;28.17;90.91
13080;BME280;6606;49.154;9.280;2022-09-01T07:32:28;99863.84;;;28.53;89.82
13080;BME280;6606;49.154;9.280;2022-09-01T07:34:56;99866.78;;;28.66;81.47
13080;BME280;6606;49.154;9.280;2022-09-01T07:37:23;99866.06;;;27.67;86.84
13080;BME280;6606;49.154;9.280;2022-09-01T07:39:52;99869.59;;;28.73;82.42
13080;BME280;6606;49.154;9.280;2022-09-01T07:42:38;99874.47;;;28.33;81.46
13080;BME280;6606;49.154;9.280;2022-09-01T07:45:23;99877.06;;;29.36;76.63
13080;BME280;6606;49.154;9.280;2022-09-01T07:48:04;99878.88;;;25.76;100.00
13080;BME280;6606;49.154;9.280;2022-09-01T07:50:39;99885.72;;;24.36;100.00
13080;BME280;6606;49.154;9.280;2022-09-01T07:53:09;99881.16;;;23.66;100.00
13080;BME280;6606;49.154;9.280;2022-09-01T07:55:38;99877.22;;;23.61;100.00
13080;BME280;6606;49.154;9.280;2022-09-01T07:58:07;99881.47;;;23.63;100.00
13080;BME280;6606;49.154;9.280;2022-09-01T08:00:33;99889.78;;;24.32;100.00
13080;BME280;6606;49.154;9.280;2022-09-01T08:03:05;99880.75;;;25.67;100.00
13080;BME280;6606;49.154;9.280;2022-09-01T08:05:32;99873.16;;;25.04;100.00
13080;BME280;6606;49.154;9.280;2022-09-01T08:08:00;99880.41;;;24.52;100.00
13080;BME280;6606;49.154;9.280;2022-09-01T08:10:31;99886.47;;;23.94;100.00
13080;BME280;6606;49.154;9.280;2022-09-01T08:12:58;99885.41;;;23.87;100.00
13080;BME280;6606;49.154;9.280;2022-09-01T08:15:27;99891.28;;;23.46;100.00
13080;BME280;6606;49.154;9.280;2022-09-01T08:17:54;99889.78;;;22.98;100.00
13080;BME280;6606;49.154;9.280;2022-09-01T08:20:23;99895.91;;;23.18;100.00
13080;BME280;6606;49.154;9.280;2022-09-01T08:22:52;99891.22;;;22.18;100.00
13080;BME280;6606;49.154;9.280;2022-09-01T08:25:32;99898.03;;;22.97;100.00
13080;BME280;6606;49.154;9.280;2022-09-01T08:28:00;99897.31;;;23.22;100.00
13080;BME280;6606;49.154;9.280;2022-09-01T08:30:29;99893.34;;;23.17;100.00
13080;BME280;6606;49.154;9.280;2022-09-01T08:32:57;99894.22;;;22.90;100.00
13080;BME280;6606;49.154;9.280;2022-09-01T08:35:26;99888.81;;;22.90;100.00
13080;BME280;6606;49.154;9.280;2022-09-01T08:37:55;99889.97;;;22.87;100.00
13080;BME280;6606;49.154;9.280;2022-09-01T08:40:24;99891.41;;;23.09;100.00
13080;BME280;6606;49.154;9.280;2022-09-01T08:43:01;99895.09;;;22.53;100.00
13080;BME280;6606;49.154;9.280;2022-09-01T08:45:39;99901.78;;;21.92;100.00
13080;BME280;6606;49.154;9.280;2022-09-01T08:48:13;99892.34;;;22.25;100.00
13080;BME280;6606;49.154;9.280;2022-09-01T08:50:42;99894.50;;;22.59;100.00
13080;BME280;6606;49.154;9.280;2022-09-01T08:53:25;99887.91;;;22.71;100.00
13080;BME280;6606;49.154;9.280;2022-09-01T08:55:56;99882.06;;;23.03;100.00
13080;BME280;6606;49.154;9.280;2022-09-01T08:58:24;99896.88;;;23.45;100.00
13080;BME280;6606;49.154;9.280;2022-09-01T09:01:17;99886.78;;;23.19;100.00
13080;BME280;6606;49.154;9.280;2022-09-01T09:04:00;99877.44;;;22.86;100.00
13080;BME280;6606;49.154;9.280;2022-09-01T09:06:36;99874.88;;;23.12;100.00
13080;BME280;6606;49.154;9.280;2022-09-01T09:09:06;99886.56;;;23.31;100.00
13080;BME280;6606;49.154;9.280;2022-09-01T09:12:02;99883.66;;;23.42;100.00
13080;BME280;6606;49.154;9.280;2022-09-01T09:14:49;99877.97;;;23.17;100.00
13080;BME280;6606;49.154;9.280;2022-09-01T09:17:23;99892.81;;;23.49;100.00
13080;BME280;6606;49.154;9.280;2022-09-01T09:19:51;99876.28;;;23.52;100.00
13080;BME280;6606;49.154;9.280;2022-09-01T09:22:18;99878.41;;;24.28;100.00
13080;BME280;6606;49.154;9.280;2022-09-01T09:24:49;99881.91;;;24.47;100.00
13080;BME280;6606;49.154;9.280;2022-09-01T09:27:18;99890.78;;;24.05;100.00
13080;BME280;6606;49.154;9.280;2022-09-01T09:29:47;99884.69;;;23.67;100.00
13080;BME280;6606;49.154;9.280;2022-09-01T09:32:15;99891.06;;;23.40;100.00
13080;BME280;6606;49.154;9.280;2022-09-01T09:34:43;99885.66;;;23.58;100.00
13080;BME280;6606;49.154;9.280;2022-09-01T09:37:22;99878.91;;;23.44;100.00
13080;BME280;6606;49.154;9.280;2022-09-01T09:40:10;99881.22;;;23.39;100.00
13080;BME280;6606;49.154;9.280;2022-09-01T09:42:41;99875.38;;;24.05;100.00
13080;BME280;6606;49.154;9.280;2022-09-01T09:45:21;99870.53;;;24.43;100.00
13080;BME280;6606;49.154;9.280;2022-09-01T09:47:49;99876.38;;;24.56;100.00
13080;BME280;6606;49.154;9.280;2022-09-01T09:50:21;99877.78;;;24.08;100.00
13080;BME280;6606;49.154;9.280;2022-09-01T09:52:49;99884.16;;;23.81;100.00
13080;BME280;6606;49.154;9.280;2022-09-01T09:55:21;99877.44;;;23.14;100.00
13080;BME280;6606;49.154;9.280;2022-09-01T09:57:49;99876.59;;;23.13;100.00
13080;BME280;6606;49.154;9.280;2022-09-01T10:00:20;99875.34;;;23.25;100.00
13080;BME280;6606;49.154;9.280;2022-09-01T10:02:53;99878.06;;;23.43;100.00
13080;BME280;6606;49.154;9.280;2022-09-01T10:05:38;99878.00;;;23.53;100.00
13080;BME280;6606;49.154;9.280;2022-09-01T10:08:08;99870.19;;;23.50;100.00
13080;BME280;6606;49.154;9.280;2022-09-01T10:10:40;99861.56;;;24.17;100.00
13080;BME280;6606;49.154;9.280;2022-09-01T10:13:10;99864.66;;;24.22;100.00
13080;BME280;6606;49.154;9.280;2022-09-01T10:15:39;99866.16;;;23.90;100.00
13080;BME280;6606;49.154;9.280;2022-09-01T10:18:09;99864.09;;;23.48;100.00
13080;BME280;6606;49.154;9.280;2022-09-01T10:20:44;99873.56;;;24.14;100.00
13080;BME280;6606;49.154;9.280;2022-09-01T10:23:12;99862.03;;;24.38;100.00
13080;BME280;6606;49.154;9.280;2022-09-01T10:25:40;99857.47;;;24.12;100.00
13080;BME280;6606;49.154;9.280;2022-09-01T10:28:09;99863.03;;;24.37;100.00
13080;BME280;6606;49.154;9.280;2022-09-01T10:30:38;99870.22;;;23.94;100.00
13080;BME280;6606;49.154;9.280;2022-09-01T10:33:08;99860.31;;;24.37;100.00
13080;BME280;6606;49.154;9.280;2022-09-01T10:35:40;99867.94;;;24.68;100.00
13080;BME280;6606;49.154;9.280;2022-09-01T10:38:12;99860.88;;;24.14;100.00
13080;BME280;6606;49.154;9.280;2022-09-01T10:40:41;99868.63;;;24.09;100.00
13080;BME280;6606;49.154;9.280;2022-09-01T10:45:58;99868.25;;;24.04;100.00
13080;BME280;6606;49.154;9.280;2022-09-01T10:48:27;99864.28;;;24.17;100.00
13080;BME280;6606;49.154;9.280;2022-09-01T10:53:56;99859.41;;;25.05;100.00
13080;BME280;6606;49.154;9.280;2022-09-01T10:56:34;99856.97;;;25.36;96.57
13080;BME280;6606;49.154;9.280;2022-09-01T10:59:07;99854.59;;;25.25;100.00
13080;BME280;6606;49.154;9.280;2022-09-01T11:02:04;99849.34;;;25.56;93.70
13080;BME280;6606;49.154;9.280;2022-09-01T11:05:10;99847.97;;;25.77;92.39
13080;BME280;6606;49.154;9.280;2022-09-01T11:07:37;99860.41;;;26.60;91.06
13080;BME280;6606;49.154;9.280;2022-09-01T11:10:26;99849.56;;;26.83;82.88
13080;BME280;6606;49.154;9.280;2022-09-01T11:13:13;99835.97;;;27.60;79.68
13080;BME280;6606;49.154;9.280;2022-09-01T11:15:44;99840.31;;;27.00;78.23
13080;BME280;6606;49.154;9.280;2022-09-01T11:18:14;99844.59;;;26.63;86.25
13080;BME280;6606;49.154;9.280;2022-09-01T11:20:42;99838.34;;;26.46;80.39
13080;BME280;6606;49.154;9.280;2022-09-01T11:23:19;99841.88;;;25.99;86.30
13080;BME280;6606;49.154;9.280;2022-09-01T11:25:49;99843.56;;;25.76;88.64
13080;BME280;6606;49.154;9.280;2022-09-01T11:31:17;99835.19;;;25.04;97.33
13080;BME280;6606;49.154;9.280;2022-09-01T11:33:55;99824.22;;;25.30;94.34
13080;BME280;6606;49.154;9.280;2022-09-01T11:36:30;99831.72;;;26.49;85.05
13080;BME280;6606;49.154;9.280;2022-09-01T11:39:06;99814.97;;;26.68;81.89
13080;BME280;6606;49.154;9.280;2022-09-01T11:41:45;99834.75;;;25.49;87.97
13080;BME280;6606;49.154;9.280;2022-09-01T11:44:21;99821.94;;;24.92;91.96
13080;BME280;6606;49.154;9.280;2022-09-01T11:46:50;99826.13;;;24.36;96.50
13080;BME280;6606;49.154;9.280;2022-09-01T11:49:26;99824.22;;;24.02;100.00
13080;BME280;6606;49.154;9.280;2022-09-01T11:51:54;99817.88;;;24.11;100.00
13080;BME280;6606;49.154;9.280;2022-09-01T11:54:22;99813.84;;;24.24;100.00
13080;BME280;6606;49.154;9.280;2022-09-01T11:56:50;99815.31;;;23.84;100.00
13080;BME280;6606;49.154;9.280;2022-09-01T11:59:31;99810.38;;;24.05;100.00
13080;BME280;6606;49.154;9.280;2022-09-01T12:01:59;99808.66;;;24.65;99.03
13080;BME280;6606;49.154;9.280;2022-09-01T12:04:31;99804.81;;;26.15;92.80
13080;BME280;6606;49.154;9.280;2022-09-01T12:07:00;99816.28;;;25.85;88.98
13080;BME280;6606;49.154;9.280;2022-09-01T12:09:33;99801.13;;;26.47;85.69
13080;BME280;6606;49.154;9.280;2022-09-01T12:12:01;99799.50;;;26.69;83.57
13080;BME280;6606;49.154;9.280;2022-09-01T12:14:28;99794.75;;;26.23;85.94
13080;BME280;6606;49.154;9.280;2022-09-01T12:16:57;99796.19;;;25.95;89.44
13080;BME280;6606;49.154;9.280;2022-09-01T12:19:26;99789.13;;;26.25;87.84
13080;BME280;6606;49.154;9.280;2022-09-01T12:21:59;99796.22;;;26.42;87.53
13080;BME280;6606;49.154;9.280;2022-09-01T12:24:28;99801.13;;;26.47;87.62
13080;BME280;6606;49.154;9.280;2022-09-01T12:26:55;99803.03;;;25.50;91.73
13080;BME280;6606;49.154;9.280;2022-09-01T12:29:24;99800.28;;;25.66;89.32
13080;BME280;6606;49.154;9.280;2022-09-01T12:31:52;99792.44;;;24.97;97.43
13080;BME280;6606;49.154;9.280;2022-09-01T12:34:35;99791.81;;;25.61;89.46
13080;BME280;6606;49.154;9.280;2022-09-01T12:37:05;99780.28;;;25.51;93.09
13080;BME280;6606;49.154;9.280;2022-09-01T12:39:34;99787.69;;;26.06;89.72
13080;BME280;6606;49.154;9.280;2022-09-01T12:42:05;99772.59;;;26.43;82.92
13080;BME280;6606;49.154;9.280;2022-09-01T12:44:43;99781.41;;;26.45;79.12
13080;BME280;6606;49.154;9.280;2022-09-01T12:47:13;99783.06;;;26.23;79.05
13080;BME280;6606;49.154;9.280;2022-09-01T12:50:00;99779.09;;;26.34;82.62
13080;BME280;6606;49.154;9.280;2022-09-01T12:53:59;99776.84;;;26.77;75.50
13080;BME280;6606;49.154;9.280;2022-09-01T12:56:30;99767.78;;;27.53;69.04
13080;BME280;6606;49.154;9.280;2022-09-01T12:59:07;99762.06;;;28.01;67.48
13080;BME280;6606;49.154;9.280;2022-09-01T13:01:36;99766.31;;;27.66;71.01
13080;BME280;6606;49.154;9.280;2022-09-01T13:04:10;99762.97;;;28.23;61.60
13080;BME280;6606;49.154;9.280;2022-09-01T13:06:36;99758.94;;;28.19;60.48
13080;BME280;6606;49.154;9.280;2022-09-01T13:09:03;99757.06;;;28.34;61.37
13080;BME280;6606;49.154;9.280;2022-09-01T13:11:31;99746.50;;;28.31;57.61
13080;BME280;6606;49.154;9.280;2022-09-01T13:13:59;99746.06;;;28.13;62.67
13080;BME280;6606;49.154;9.280;2022-09-01T13:16:25;99741.59;;;28.41;60.24
13080;BME280;6606;49.154;9.280;2022-09-01T13:18:52;99749.34;;;28.23;59.70
13080;BME280;6606;49.154;9.280;2022-09-01T13:21:19;99740.88;;;28.47;58.40
13080;BME280;6606;49.154;9.280;2022-09-01T13:23:46;99739.66;;;28.50;56.86
13080;BME280;6606;49.154;9.280;2022-09-01T13:26:13;99748.59;;;28.29;58.45
13080;BME280;6606;49.154;9.280;2022-09-01T13:28:41;99743.34;;;27.83;65.13
13080;BME280;6606;49.154;9.280;2022-09-01T13:31:09;99728.28;;;27.72;62.53